Time;durP1;ratioP1;P1;durP2;ratioP2;P2;SDS_P1;SDS_P2;PMS_P1;PMS_P2;Temp;Humidity;BMP_temperature;BMP_pressure;BME280_temperature;BME280_humidity;BME280_pressure;Samples;Min_cycle;Max_cycle;Signal;HPM_P1;HPM_P2
2023/05/04 00:00:34;;;;;;;;;;;;;;;;;;5111668;28;20009;-62
2023/05/04 00:03:01;;;;;;;;;;;;;;;;;;5111360;28;19924;-62
2023/05/04 00:05:30;;;;;;;;;;;;;;;;;;5109255;28;21538;-63
2023/05/04 00:07:57;;;;;;;;;;;;;;;;;;5094410;28;19924;-63
2023/05/04 00:10:24;;;;;;;;;;;;;;;;;;5109489;28;19923;-63
2023/05/04 00:12:51;;;;;;;;;;;;;;;;;;5112184;28;19970;-63
2023/05/04 00:15:17;;;;;;;;;;;;;;;;;;5109510;28;19982;-62
2023/05/04 00:17:45;;;;;;;;;;;;;;;;;;5112626;28;20377;-62
2023/05/04 00:20:12;;;;;;;;;;;;;;;;;;5103965;28;19924;-62
2023/05/04 00:22:39;;;;;;;;;;;;;;;;;;5105940;28;19927;-62
2023/05/04 00:25:06;;;;;;;;;;;;;;;;;;5111782;28;19977;-62
2023/05/04 00:27:33;;;;;;;;;;;;;;;;;;5112876;28;20018;-62
2023/05/04 00:30:00;;;;;;;;;;;;;;;;;;5103161;28;19979;-63
2023/05/04 00:32:27;;;;;;;;;;;;;;;;;;5091945;28;20306;-63
2023/05/04 00:34:54;;;;;;;;;;;;;;;;;;5093890;28;19959;-63
2023/05/04 00:37:21;;;;;;;;;;;;;;;;;;5093327;28;19989;-63
2023/05/04 00:39:48;;;;;;;;;;;;;;;;;;5112502;28;20475;-63
2023/05/04 00:42:15;;;;;;;;;;;;;;;;;;5111899;28;19967;-62
2023/05/04 00:44:43;;;;;;;;;;;;;;;;;;5107037;28;20367;-62
2023/05/04 00:47:10;;;;;;;;;;;;;;;;;;5103777;28;19927;-62
2023/05/04 00:49:37;;;;;;;;;;;;;;;;;;5109939;28;19945;-62
2023/05/04 00:52:04;;;;;;;;;;;;;;;;;;5112116;28;20275;-62
2023/05/04 00:54:31;;;;;;;;;;;;;;;;;;5112310;28;19923;-62
2023/05/04 00:56:58;;;;;;;;;;;;;;;;;;5108849;28;20019;-62
2023/05/04 00:59:25;;;;;;;;;;;;;;;;;;5111807;28;19971;-62
2023/05/04 01:01:52;;;;;;;;;;;;;;;;;;5112671;28;19963;-62
2023/05/04 01:04:19;;;;;;;;;;;;;;;;;;5112152;28;20374;-62
2023/05/04 01:06:46;;;;;;;;;;;;;;;;;;5112039;28;19923;-62
2023/05/04 01:09:13;;;;;;;;;;;;;;;;;;5116244;28;19970;-63
2023/05/04 01:11:40;;;;;;;;;;;;;;;;;;5115678;28;19977;-63
2023/05/04 01:14:07;;;;;;;;;;;;;;;;;;5106260;28;19924;-63
2023/05/04 01:16:35;;;;;;;;;;;;;;;;;;5114191;28;19924;-64
2023/05/04 01:19:03;;;;;;;;;;;;;;;;;;5115418;28;20010;-64
2023/05/04 01:21:30;;;;;;;;;;;;;;;;;;5101673;27;19924;-63
2023/05/04 01:23:57;;;;;;;;;;;;;;;;;;5115755;28;19924;-63
2023/05/04 01:26:24;;;;;;;;;;;;;;;;;;5115771;28;19971;-63
2023/05/04 01:28:51;;;;;;;;;;;;;;;;;;5114974;28;20378;-63
2023/05/04 01:31:18;;;;;;;;;;;;;;;;;;5114083;28;19931;-63
2023/05/04 01:33:45;;;;;;;;;;;;;;;;;;5114883;28;19928;-63
2023/05/04 01:36:12;;;;;;;;;;;;;;;;;;5104117;28;19978;-63
2023/05/04 01:38:39;;;;;;;;;;;;;;;;;;5111607;28;20378;-63
2023/05/04 01:41:06;;;;;;;;;;;;;;;;;;5116005;28;19924;-64
2023/05/04 01:43:33;;;;;;;;;;;;;;;;;;5116043;28;19971;-63
2023/05/04 01:46:00;;;;;;;;;;;;;;;;;;5108856;28;19924;-63
2023/05/04 01:48:28;;;;;;;;;;;;;;;;;;5115282;28;20290;-62
2023/05/04 01:50:55;;;;;;;;;;;;;;;;;;5112575;28;19971;-62
2023/05/04 01:53:22;;;;;;;;;;;;;;;;;;5116144;28;19939;-63
2023/05/04 01:55:49;;;;;;;;;;;;;;;;;;5115311;28;19977;-62
2023/05/04 01:58:17;;;;;;;;;;;;;;;;;;5114392;28;19977;-63
2023/05/04 02:00:44;;;;;;;;;;;;;;;;;;5094770;28;19924;-62
2023/05/04 02:03:11;;;;;;;;;;;;;;;;;;5100392;28;19923;-62
2023/05/04 02:05:38;;;;;;;;;;;;;;;;;;5111572;28;20019;-62
2023/05/04 02:08:05;;;;;;;;;;;;;;;;;;5104747;28;19997;-62
2023/05/04 02:10:32;;;;;;;;;;;;;;;;;;5114196;28;20004;-62
2023/05/04 02:12:59;;;;;;;;;;;;;;;;;;5113692;28;19924;-62
2023/05/04 02:15:26;;;;;;;;;;;;;;;;;;5113245;28;20453;-64
2023/05/04 02:17:54;;;;;;;;;;;;;;;;;;5114535;28;19924;-63
2023/05/04 02:20:21;;;;;;;;;;;;;;;;;;5102409;28;19931;-62
2023/05/04 02:22:48;;;;;;;;;;;;;;;;;;5105018;28;19924;-63
2023/05/04 02:25:15;;;;;;;;;;;;;;;;;;5113952;28;19958;-63
2023/05/04 02:27:43;;;;;;;;;;;;;;;;;;5115162;28;19984;-64
2023/05/04 02:30:10;;;;;;;;;;;;;;;;;;5112581;28;19930;-64
2023/05/04 02:32:37;;;;;;;;;;;;;;;;;;5113827;28;19924;-64
2023/05/04 02:35:04;;;;;;;;;;;;;;;;;;5111622;28;20293;-61
2023/05/04 02:37:31;;;;;;;;;;;;;;;;;;5099754;28;19924;-63
2023/05/04 02:39:58;;;;;;;;;;;;;;;;;;5113349;28;19970;-61
2023/05/04 02:42:25;;;;;;;;;;;;;;;;;;5113445;28;20339;-61
2023/05/04 02:44:52;;;;;;;;;;;;;;;;;;5112707;28;20012;-63
2023/05/04 02:47:19;;;;;;;;;;;;;;;;;;5110026;28;19971;-62
2023/05/04 02:49:46;;;;;;;;;;;;;;;;;;5104381;28;19928;-63
2023/05/04 02:52:13;;;;;;;;;;;;;;;;;;5111497;28;19967;-62
2023/05/04 02:54:40;;;;;;;;;;;;;;;;;;5113870;28;19923;-63
2023/05/04 02:57:07;;;;;;;;;;;;;;;;;;5112756;28;19976;-63
2023/05/04 02:59:34;;;;;;;;;;;;;;;;;;5113535;28;19963;-63
2023/05/04 03:02:01;;;;;;;;;;;;;;;;;;5113125;28;19993;-62
2023/05/04 03:04:28;;;;;;;;;;;;;;;;;;5109859;28;19976;-62
2023/05/04 03:06:55;;;;;;;;;;;;;;;;;;5112641;28;19923;-62
2023/05/04 03:09:22;;;;;;;;;;;;;;;;;;5112971;28;19951;-63
2023/05/04 03:11:49;;;;;;;;;;;;;;;;;;5113606;28;19923;-63
2023/05/04 03:14:16;;;;;;;;;;;;;;;;;;5112384;28;19976;-63
2023/05/04 03:16:43;;;;;;;;;;;;;;;;;;5112924;28;19924;-63
2023/05/04 03:19:10;;;;;;;;;;;;;;;;;;5112338;28;19924;-63
2023/05/04 03:21:37;;;;;;;;;;;;;;;;;;5111123;28;19924;-62
2023/05/04 03:24:04;;;;;;;;;;;;;;;;;;5113735;28;20294;-63
2023/05/04 03:26:31;;;;;;;;;;;;;;;;;;5113676;28;19924;-63
2023/05/04 03:28:58;;;;;;;;;;;;;;;;;;5110959;28;19992;-63
2023/05/04 03:31:26;;;;;;;;;;;;;;;;;;5113269;28;19923;-63
2023/05/04 03:33:53;;;;;;;;;;;;;;;;;;5115776;28;20398;-63
2023/05/04 03:36:20;;;;;;;;;;;;;;;;;;5104208;28;19924;-64
2023/05/04 03:38:47;;;;;;;;;;;;;;;;;;5102092;28;19967;-63
2023/05/04 03:41:14;;;;;;;;;;;;;;;;;;5102699;28;20271;-61
2023/05/04 03:43:41;;;;;;;;;;;;;;;;;;5113453;28;19924;-63
2023/05/04 03:46:08;;;;;;;;;;;;;;;;;;5113384;28;19924;-63
2023/05/04 03:48:35;;;;;;;;;;;;;;;;;;5113466;28;19923;-63
2023/05/04 03:51:02;;;;;;;;;;;;;;;;;;5107301;28;19924;-63
2023/05/04 03:53:29;;;;;;;;;;;;;;;;;;5113591;28;19969;-63
2023/05/04 03:55:56;;;;;;;;;;;;;;;;;;5112886;28;19932;-64
2023/05/04 03:58:23;;;;;;;;;;;;;;;;;;5112166;28;19994;-64
2023/05/04 04:00:50;;;;;;;;;;;;;;;;;;5098174;28;19931;-64
2023/05/04 04:03:17;;;;;;;;;;;;;;;;;;5111444;28;19924;-63
2023/05/04 04:05:44;;;;;;;;;;;;;;;;;;5099488;28;19924;-63
2023/05/04 04:08:13;;;;;;;;;;;;;;;;;;5112116;28;19976;-63
2023/05/04 04:10:40;;;;;;;;;;;;;;;;;;5111813;28;19923;-64
2023/05/04 04:13:07;;;;;;;;;;;;;;;;;;5112683;28;19924;-64
2023/05/04 04:15:33;;;;;;;;;;;;;;;;;;5111972;28;19966;-63
2023/05/04 04:18:00;;;;;;;;;;;;;;;;;;5110875;28;20389;-63
2023/05/04 04:20:28;;;;;;;;;;;;;;;;;;5109492;28;19963;-63
2023/05/04 04:22:55;;;;;;;;;;;;;;;;;;5092176;28;20000;-63
2023/05/04 04:25:23;;;;;;;;;;;;;;;;;;5112330;28;19953;-63
2023/05/04 04:27:50;;;;;;;;;;;;;;;;;;5107430;28;19935;-62
2023/05/04 04:30:17;;;;;;;;;;;;;;;;;;5109896;28;19928;-62
2023/05/04 04:32:44;;;;;;;;;;;;;;;;;;5110741;28;20458;-62
2023/05/04 04:35:12;;;;;;;;;;;;;;;;;;5111346;28;19928;-62
2023/05/04 04:37:39;;;;;;;;;;;;;;;;;;5106564;28;19931;-62
2023/05/04 04:40:07;;;;;;;;;;;;;;;;;;5111271;28;20366;-62
2023/05/04 04:42:34;;;;;;;;;;;;;;;;;;5115323;28;19924;-62
2023/05/04 04:45:04;;;;;;;;;;;;;;;;;;5116050;28;19976;-62
2023/05/04 04:47:31;;;;;;;;;;;;;;;;;;5112182;28;19923;-63
2023/05/04 04:49:58;;;;;;;;;;;;;;;;;;5115365;28;20467;-62
2023/05/04 04:52:25;;;;;;;;;;;;;;;;;;5115190;28;19967;-62
2023/05/04 04:54:52;;;;;;;;;;;;;;;;;;5115724;28;19969;-62
2023/05/04 04:57:19;;;;;;;;;;;;;;;;;;5114044;28;19979;-63
2023/05/04 04:59:46;;;;;;;;;;;;;;;;;;5114740;28;20289;-63
2023/05/04 05:02:14;;;;;;;;;;;;;;;;;;5115179;28;20374;-63
2023/05/04 05:04:41;;;;;;;;;;;;;;;;;;5113128;28;19926;-63
2023/05/04 05:07:09;;;;;;;;;;;;;;;;;;5110099;28;19969;-62
2023/05/04 05:09:36;;;;;;;;;;;;;;;;;;5111617;28;20023;-62
2023/05/04 05:12:03;;;;;;;;;;;;;;;;;;5113260;28;19923;-63
2023/05/04 05:14:31;;;;;;;;;;;;;;;;;;5115734;28;19924;-62
2023/05/04 05:16:58;;;;;;;;;;;;;;;;;;5116582;28;19930;-62
2023/05/04 05:19:26;;;;;;;;;;;;;;;;;;5114926;28;19924;-63
2023/05/04 05:21:53;;;;;;;;;;;;;;;;;;5108471;28;19997;-63
2023/05/04 05:24:20;;;;;;;;;;;;;;;;;;5107880;28;20375;-62
2023/05/04 05:26:47;;;;;;;;;;;;;;;;;;5096863;28;20391;-62
2023/05/04 05:29:14;;;;;;;;;;;;;;;;;;5112804;28;20440;-63
2023/05/04 05:31:41;;;;;;;;;;;;;;;;;;5113090;28;19967;-62
2023/05/04 05:34:08;;;;;;;;;;;;;;;;;;5109511;28;19924;-63
2023/05/04 05:36:35;;;;;;;;;;;;;;;;;;5112404;28;20402;-64
2023/05/04 05:39:03;;;;;;;;;;;;;;;;;;5112285;28;19927;-63
2023/05/04 05:41:30;;;;;;;;;;;;;;;;;;5112266;28;19924;-62
2023/05/04 05:43:58;;;;;;;;;;;;;;;;;;5113331;28;19939;-62
2023/05/04 05:46:26;;;;;;;;;;;;;;;;;;5114950;28;19924;-62
2023/05/04 05:48:53;;;;;;;;;;;;;;;;;;5108074;28;19924;-62
2023/05/04 05:51:21;;;;;;;;;;;;;;;;;;5111241;28;19963;-62
2023/05/04 05:53:48;;;;;;;;;;;;;;;;;;5111537;28;19953;-63
2023/05/04 05:56:15;;;;;;;;;;;;;;;;;;5113963;28;19942;-63
2023/05/04 05:58:42;;;;;;;;;;;;;;;;;;5113259;28;19992;-63
2023/05/04 06:01:09;;;;;;;;;;;;;;;;;;5112744;28;19962;-63
2023/05/04 06:03:36;;;;;;;;;;;;;;;;;;5107839;28;19932;-63
2023/05/04 06:06:03;;;;;;;;;;;;;;;;;;5105244;28;19924;-63
2023/05/04 06:08:30;;;;;;;;;;;;;;;;;;5113258;28;19930;-63
2023/05/04 06:10:57;;;;;;;;;;;;;;;;;;5099929;28;19924;-63
2023/05/04 06:13:25;;;;;;;;;;;;;;;;;;5104146;28;19959;-63
2023/05/04 06:15:52;;;;;;;;;;;;;;;;;;5113793;27;20336;-63
2023/05/04 06:18:20;;;;;;;;;;;;;;;;;;5112136;28;19924;-65
2023/05/04 06:20:47;;;;;;;;;;;;;;;;;;5111361;28;20053;-66
2023/05/04 06:23:14;;;;;;;;;;;;;;;;;;5102377;28;19927;-70
2023/05/04 06:25:41;;;;;;;;;;;;;;;;;;5111614;28;20378;-67
2023/05/04 06:28:08;;;;;;;;;;;;;;;;;;5112935;28;19924;-66
2023/05/04 06:30:35;;;;;;;;;;;;;;;;;;5111162;28;19923;-67
2023/05/04 06:33:03;;;;;;;;;;;;;;;;;;5112169;28;19924;-65
2023/05/04 06:35:30;;;;;;;;;;;;;;;;;;5112797;28;19955;-65
2023/05/04 06:37:57;;;;;;;;;;;;;;;;;;5109537;28;20247;-67
2023/05/04 06:40:24;;;;;;;;;;;;;;;;;;5112482;28;19969;-66
2023/05/04 06:42:51;;;;;;;;;;;;;;;;;;5112804;28;20015;-67
2023/05/04 06:45:19;;;;;;;;;;;;;;;;;;5113077;28;19935;-67
2023/05/04 06:47:46;;;;;;;;;;;;;;;;;;5112554;28;19924;-66
2023/05/04 06:50:13;;;;;;;;;;;;;;;;;;5112191;28;19924;-67
2023/05/04 06:52:40;;;;;;;;;;;;;;;;;;5110513;28;20016;-67
2023/05/04 06:55:07;;;;;;;;;;;;;;;;;;5107569;27;19928;-67
2023/05/04 06:57:34;;;;;;;;;;;;;;;;;;5110911;28;19924;-68
2023/05/04 07:00:03;;;;;;;;;;;;;;;;;;5105442;28;19928;-67
2023/05/04 07:02:30;;;;;;;;;;;;;;;;;;5105516;28;19939;-65
2023/05/04 07:04:57;;;;;;;;;;;;;;;;;;5105448;28;20014;-67
2023/05/04 07:07:24;;;;;;;;;;;;;;;;;;5100155;28;19924;-66
2023/05/04 07:09:51;;;;;;;;;;;;;;;;;;5096083;27;20324;-66
2023/05/04 07:12:18;;;;;;;;;;;;;;;;;;5099971;28;20031;-66
2023/05/04 07:14:45;;;;;;;;;;;;;;;;;;5104630;28;20623;-66
2023/05/04 07:17:13;;;;;;;;;;;;;;;;;;5103286;28;19970;-66
2023/05/04 07:19:40;;;;;;;;;;;;;;;;;;5107667;28;19924;-66
2023/05/04 07:22:07;;;;;;;;;;;;;;;;;;5103041;28;19968;-67
2023/05/04 07:24:34;;;;;;;;;;;;;;;;;;5105097;28;19971;-66
2023/05/04 07:27:01;;;;;;;;;;;;;;;;;;5098959;28;19924;-66
2023/05/04 07:29:28;;;;;;;;;;;;;;;;;;5105031;28;19982;-67
2023/05/04 07:31:55;;;;;;;;;;;;;;;;;;5103531;28;19978;-67
2023/05/04 07:34:22;;;;;;;;;;;;;;;;;;5107624;28;19963;-66
2023/05/04 07:36:49;;;;;;;;;;;;;;;;;;5103499;28;20508;-66
2023/05/04 07:39:16;;;;;;;;;;;;;;;;;;5109453;28;19974;-67
2023/05/04 07:41:44;;;;;;;;;;;;;;;;;;5106048;28;20386;-66
2023/05/04 07:44:11;;;;;;;;;;;;;;;;;;5097115;28;19924;-66
2023/05/04 07:46:38;;;;;;;;;;;;;;;;;;5107668;28;19924;-67
2023/05/04 07:49:05;;;;;;;;;;;;;;;;;;5107937;28;19924;-67
2023/05/04 07:51:32;;;;;;;;;;;;;;;;;;5108461;28;19928;-67
2023/05/04 07:53:59;;;;;;;;;;;;;;;;;;5110601;28;19928;-67
2023/05/04 07:56:26;;;;;;;;;;;;;;;;;;5109747;28;19959;-67
2023/05/04 07:58:53;;;;;;;;;;;;;;;;;;5105143;28;20036;-67
2023/05/04 08:01:20;;;;;;;;;;;;;;;;;;5105248;28;19924;-67
2023/05/04 08:03:47;;;;;;;;;;;;;;;;;;5105418;28;20059;-67
2023/05/04 08:06:14;;;;;;;;;;;;;;;;;;5107421;28;19924;-68
2023/05/04 08:08:43;;;;;;;;;;;;;;;;;;5106800;28;19932;-67
2023/05/04 08:11:10;;;;;;;;;;;;;;;;;;5109998;28;19924;-67
2023/05/04 08:13:37;;;;;;;;;;;;;;;;;;5108136;28;20429;-67
2023/05/04 08:16:04;;;;;;;;;;;;;;;;;;5110665;28;19923;-67
2023/05/04 08:18:31;;;;;;;;;;;;;;;;;;5104187;28;19977;-68
2023/05/04 08:20:58;;;;;;;;;;;;;;;;;;5105163;28;20042;-67
2023/05/04 08:23:26;;;;;;;;;;;;;;;;;;5104490;28;19932;-67
2023/05/04 08:25:53;;;;;;;;;;;;;;;;;;5105045;28;19923;-67
2023/05/04 08:28:20;;;;;;;;;;;;;;;;;;5093179;28;19928;-67
2023/05/04 08:30:47;;;;;;;;;;;;;;;;;;5102813;28;19931;-67
2023/05/04 08:33:14;;;;;;;;;;;;;;;;;;5109593;28;19981;-66
2023/05/04 08:35:41;;;;;;;;;;;;;;;;;;5102468;28;19964;-67
2023/05/04 08:38:08;;;;;;;;;;;;;;;;;;5103412;28;19924;-67
2023/05/04 08:40:35;;;;;;;;;;;;;;;;;;5106893;28;19975;-67
2023/05/04 08:43:02;;;;;;;;;;;;;;;;;;5103288;28;20398;-68
2023/05/04 08:45:29;;;;;;;;;;;;;;;;;;5102441;28;19978;-68
2023/05/04 08:47:56;;;;;;;;;;;;;;;;;;5101786;28;19963;-68
2023/05/04 08:50:23;;;;;;;;;;;;;;;;;;5102354;28;20345;-68
2023/05/04 08:52:51;;;;;;;;;;;;;;;;;;5106525;28;19981;-67
2023/05/04 08:55:18;;;;;;;;;;;;;;;;;;5102325;28;19971;-66
2023/05/04 08:57:45;;;;;;;;;;;;;;;;;;5103280;28;20014;-66
2023/05/04 09:00:12;;;;;;;;;;;;;;;;;;5104232;28;20351;-66
2023/05/04 09:02:39;;;;;;;;;;;;;;;;;;5110918;28;19928;-66
2023/05/04 09:05:07;;;;;;;;;;;;;;;;;;5106599;28;19924;-66
2023/05/04 09:07:34;;;;;;;;;;;;;;;;;;5106499;28;19924;-68
2023/05/04 09:10:02;;;;;;;;;;;;;;;;;;5100583;28;19932;-67
2023/05/04 09:12:29;;;;;;;;;;;;;;;;;;5100312;28;19967;-67
2023/05/04 09:14:57;;;;;;;;;;;;;;;;;;5106182;28;20444;-67
2023/05/04 09:17:26;;;;;;;;;;;;;;;;;;5097629;28;19928;-67
2023/05/04 09:19:53;;;;;;;;;;;;;;;;;;5105836;28;20407;-67
2023/05/04 09:22:20;;;;;;;;;;;;;;;;;;5110264;28;19959;-67
2023/05/04 09:24:47;;;;;;;;;;;;;;;;;;5108480;28;19924;-67
2023/05/04 09:27:14;;;;;;;;;;;;;;;;;;5110456;28;19977;-66
2023/05/04 09:29:41;;;;;;;;;;;;;;;;;;5108519;28;20437;-67
2023/05/04 09:32:08;;;;;;;;;;;;;;;;;;5112836;28;19931;-66
2023/05/04 09:34:36;;;;;;;;;;;;;;;;;;5103259;28;19948;-67
2023/05/04 09:37:04;;;;;;;;;;;;;;;;;;5103705;28;20000;-67
2023/05/04 09:39:30;;;;;;;;;;;;;;;;;;5103789;28;19931;-67
2023/05/04 09:41:57;;;;;;;;;;;;;;;;;;5107227;28;19967;-67
2023/05/04 09:44:26;;;;;;;;;;;;;;;;;;5107545;28;19969;-67
2023/05/04 09:46:54;;;;;;;;;;;;;;;;;;5107454;28;19978;-67
2023/05/04 09:49:22;;;;;;;;;;;;;;;;;;5106819;28;19930;-67
2023/05/04 09:51:49;;;;;;;;;;;;;;;;;;5105658;28;19931;-66
2023/05/04 09:54:16;;;;;;;;;;;;;;;;;;5102997;28;19976;-66
2023/05/04 09:56:43;;;;;;;;;;;;;;;;;;5106652;28;19931;-67
2023/05/04 09:59:10;;;;;;;;;;;;;;;;;;5108140;28;19971;-66
2023/05/04 10:01:37;;;;;;;;;;;;;;;;;;5102682;28;20398;-65
2023/05/04 10:04:04;;;;;;;;;;;;;;;;;;5111006;28;19968;-63
2023/05/04 10:06:31;;;;;;;;;;;;;;;;;;5110971;28;20361;-66
2023/05/04 10:08:58;;;;;;;;;;;;;;;;;;5112193;28;19924;-66
2023/05/04 10:11:25;;;;;;;;;;;;;;;;;;5109435;28;19963;-67
2023/05/04 10:13:52;;;;;;;;;;;;;;;;;;5107650;27;19927;-67
2023/05/04 10:16:19;;;;;;;;;;;;;;;;;;5108573;28;19960;-67
2023/05/04 10:18:46;;;;;;;;;;;;;;;;;;5113564;28;19924;-66
2023/05/04 10:21:15;;;;;;;;;;;;;;;;;;5109133;28;20102;-68
2023/05/04 10:23:42;;;;;;;;;;;;;;;;;;5105295;28;19927;-67
2023/05/04 10:26:10;;;;;;;;;;;;;;;;;;5107017;28;19930;-68
2023/05/04 10:28:37;;;;;;;;;;;;;;;;;;5111832;28;20336;-67
2023/05/04 10:31:05;;;;;;;;;;;;;;;;;;5112830;28;19924;-68
2023/05/04 10:33:32;;;;;;;;;;;;;;;;;;5107757;28;20023;-67
2023/05/04 10:35:59;;;;;;;;;;;;;;;;;;5110892;28;19924;-67
2023/05/04 10:38:26;;;;;;;;;;;;;;;;;;5109309;28;19924;-68
2023/05/04 10:40:53;;;;;;;;;;;;;;;;;;5110553;28;19970;-68
2023/05/04 10:43:20;;;;;;;;;;;;;;;;;;5112270;28;19981;-67
2023/05/04 10:45:47;;;;;;;;;;;;;;;;;;5111847;28;19962;-68
2023/05/04 10:48:14;;;;;;;;;;;;;;;;;;5110210;28;19984;-68
2023/05/04 10:50:41;;;;;;;;;;;;;;;;;;5109244;28;19931;-68
2023/05/04 10:53:08;;;;;;;;;;;;;;;;;;5108721;28;19923;-67
2023/05/04 10:55:35;;;;;;;;;;;;;;;;;;5105809;28;19924;-67
2023/05/04 10:58:02;;;;;;;;;;;;;;;;;;5111533;28;20202;-66
2023/05/04 11:00:29;;;;;;;;;;;;;;;;;;5111917;28;19946;-68
2023/05/04 11:02:56;;;;;;;;;;;;;;;;;;5111903;28;19938;-68
2023/05/04 11:05:23;;;;;;;;;;;;;;;;;;5102358;28;19984;-67
2023/05/04 11:07:51;;;;;;;;;;;;;;;;;;5113233;28;19933;-67
2023/05/04 11:10:18;;;;;;;;;;;;;;;;;;5104987;28;20044;-68
2023/05/04 11:12:45;;;;;;;;;;;;;;;;;;5109201;28;19931;-67
2023/05/04 11:15:12;;;;;;;;;;;;;;;;;;5110220;28;19959;-67
2023/05/04 11:17:39;;;;;;;;;;;;;;;;;;5111227;28;19972;-68
2023/05/04 11:20:06;;;;;;;;;;;;;;;;;;5108815;28;19924;-68
2023/05/04 11:22:33;;;;;;;;;;;;;;;;;;5108347;28;19953;-67
2023/05/04 11:25:00;;;;;;;;;;;;;;;;;;5110174;28;20463;-68
2023/05/04 11:27:28;;;;;;;;;;;;;;;;;;5112611;28;19923;-68
2023/05/04 11:29:55;;;;;;;;;;;;;;;;;;5103927;28;19924;-71
2023/05/04 11:32:22;;;;;;;;;;;;;;;;;;5099323;28;20380;-71
2023/05/04 11:34:49;;;;;;;;;;;;;;;;;;5104523;28;19939;-71
2023/05/04 11:37:16;;;;;;;;;;;;;;;;;;5108423;28;19967;-73
2023/05/04 11:39:43;;;;;;;;;;;;;;;;;;5106189;28;19924;-72
2023/05/04 11:42:10;;;;;;;;;;;;;;;;;;5110947;28;20298;-72
2023/05/04 11:44:37;;;;;;;;;;;;;;;;;;5109136;28;19970;-72
2023/05/04 11:47:04;;;;;;;;;;;;;;;;;;5110681;28;19923;-74
2023/05/04 11:49:31;;;;;;;;;;;;;;;;;;5100758;28;20362;-72
2023/05/04 11:51:58;;;;;;;;;;;;;;;;;;5103828;28;19959;-71
2023/05/04 11:54:25;;;;;;;;;;;;;;;;;;5107706;28;20028;-70
2023/05/04 11:56:52;;;;;;;;;;;;;;;;;;5108449;28;20331;-70
2023/05/04 11:59:19;;;;;;;;;;;;;;;;;;5105206;28;19970;-72
2023/05/04 12:01:46;;;;;;;;;;;;;;;;;;5104552;28;20413;-70
2023/05/04 12:04:13;;;;;;;;;;;;;;;;;;5109450;28;19923;-70
2023/05/04 12:06:40;;;;;;;;;;;;;;;;;;5110762;28;19924;-70
2023/05/04 12:09:07;;;;;;;;;;;;;;;;;;5110663;28;20413;-71
2023/05/04 12:11:37;;;;;;;;;;;;;;;;;;5106771;28;19939;-73
2023/05/04 12:14:04;;;;;;;;;;;;;;;;;;5108761;28;19988;-72
2023/05/04 12:16:31;;;;;;;;;;;;;;;;;;5106962;28;19931;-71
2023/05/04 12:18:58;;;;;;;;;;;;;;;;;;5105568;28;20032;-71
2023/05/04 12:21:25;;;;;;;;;;;;;;;;;;5108528;28;19971;-67
2023/05/04 12:23:52;;;;;;;;;;;;;;;;;;5112041;28;19931;-67
2023/05/04 12:26:19;;;;;;;;;;;;;;;;;;5110791;28;20474;-67
2023/05/04 12:28:46;;;;;;;;;;;;;;;;;;5108139;28;19963;-67
2023/05/04 12:31:13;;;;;;;;;;;;;;;;;;5110527;28;20398;-67
2023/05/04 12:33:40;;;;;;;;;;;;;;;;;;5111396;28;19924;-67
2023/05/04 12:36:07;;;;;;;;;;;;;;;;;;5096565;28;19946;-67
2023/05/04 12:38:34;;;;;;;;;;;;;;;;;;5109752;28;19932;-67
2023/05/04 12:41:02;;;;;;;;;;;;;;;;;;5108455;28;20355;-67
2023/05/04 12:43:30;;;;;;;;;;;;;;;;;;5110473;28;20005;-67
2023/05/04 12:45:57;;;;;;;;;;;;;;;;;;5107048;28;20001;-67
2023/05/04 12:48:25;;;;;;;;;;;;;;;;;;5105458;28;19971;-67
2023/05/04 12:50:52;;;;;;;;;;;;;;;;;;5111532;28;20382;-67
2023/05/04 12:53:21;;;;;;;;;;;;;;;;;;5110441;28;20000;-68
2023/05/04 12:55:48;;;;;;;;;;;;;;;;;;5106023;28;19939;-71
2023/05/04 12:58:15;;;;;;;;;;;;;;;;;;5107597;28;19928;-67
2023/05/04 13:00:42;;;;;;;;;;;;;;;;;;5109040;28;20058;-68
2023/05/04 13:03:11;;;;;;;;;;;;;;;;;;5104692;28;20328;-68
2023/05/04 13:05:38;;;;;;;;;;;;;;;;;;5102913;28;19989;-68
2023/05/04 13:08:05;;;;;;;;;;;;;;;;;;5106713;28;19932;-67
2023/05/04 13:10:32;;;;;;;;;;;;;;;;;;5109965;28;19924;-66
2023/05/04 13:12:59;;;;;;;;;;;;;;;;;;5106086;28;19924;-68
2023/05/04 13:15:26;;;;;;;;;;;;;;;;;;5106078;28;20778;-68
2023/05/04 13:17:54;;;;;;;;;;;;;;;;;;5105719;28;19927;-67
2023/05/04 13:20:21;;;;;;;;;;;;;;;;;;5109945;28;19931;-67
2023/05/04 13:22:49;;;;;;;;;;;;;;;;;;5105492;28;19923;-67
2023/05/04 13:25:16;;;;;;;;;;;;;;;;;;5110674;28;19924;-68
2023/05/04 13:27:43;;;;;;;;;;;;;;;;;;5111183;28;20294;-68
2023/05/04 13:30:10;;;;;;;;;;;;;;;;;;5113466;28;19963;-68
2023/05/04 13:32:38;;;;;;;;;;;;;;;;;;5105374;28;19931;-67
2023/05/04 13:35:05;;;;;;;;;;;;;;;;;;5106623;28;19923;-67
2023/05/04 13:37:32;;;;;;;;;;;;;;;;;;5113850;28;19924;-67
2023/05/04 13:40:00;;;;;;;;;;;;;;;;;;5103336;28;19927;-68
2023/05/04 13:42:27;;;;;;;;;;;;;;;;;;5103445;28;19927;-69
2023/05/04 13:44:54;;;;;;;;;;;;;;;;;;5111052;28;19924;-70
2023/05/04 13:47:22;;;;;;;;;;;;;;;;;;5110187;28;20362;-70
2023/05/04 13:49:49;;;;;;;;;;;;;;;;;;5107909;28;19993;-69
2023/05/04 13:52:16;;;;;;;;;;;;;;;;;;5110387;28;19980;-70
2023/05/04 13:54:43;;;;;;;;;;;;;;;;;;5110699;28;19924;-68
2023/05/04 13:57:10;;;;;;;;;;;;;;;;;;5114102;27;19925;-68
2023/05/04 13:59:37;;;;;;;;;;;;;;;;;;5108703;28;19928;-68
2023/05/04 14:02:04;;;;;;;;;;;;;;;;;;5111610;28;19984;-67
2023/05/04 14:04:31;;;;;;;;;;;;;;;;;;5107193;28;20372;-67
2023/05/04 14:06:58;;;;;;;;;;;;;;;;;;5110317;28;19984;-67
2023/05/04 14:09:25;;;;;;;;;;;;;;;;;;5111135;28;20388;-68
2023/05/04 14:11:53;;;;;;;;;;;;;;;;;;5111105;28;19923;-69
2023/05/04 14:14:21;;;;;;;;;;;;;;;;;;5108923;28;19923;-66
2023/05/04 14:16:48;;;;;;;;;;;;;;;;;;5112187;28;19923;-67
2023/05/04 14:19:15;;;;;;;;;;;;;;;;;;5109704;28;20403;-67
2023/05/04 14:21:42;;;;;;;;;;;;;;;;;;5109365;28;19986;-68
2023/05/04 14:24:09;;;;;;;;;;;;;;;;;;5109772;28;20015;-68
2023/05/04 14:26:36;;;;;;;;;;;;;;;;;;5110927;28;20986;-71
2023/05/04 14:29:03;;;;;;;;;;;;;;;;;;5109137;28;21999;-71
2023/05/04 14:31:30;;;;;;;;;;;;;;;;;;5106681;28;19923;-70
2023/05/04 14:33:57;;;;;;;;;;;;;;;;;;5109167;28;19932;-72
2023/05/04 14:36:25;;;;;;;;;;;;;;;;;;5110462;28;19959;-70
2023/05/04 14:38:52;;;;;;;;;;;;;;;;;;5109906;28;19963;-68
2023/05/04 14:41:19;;;;;;;;;;;;;;;;;;5108286;28;19924;-69
2023/05/04 14:43:46;;;;;;;;;;;;;;;;;;5109336;28;20478;-67
2023/05/04 14:46:13;;;;;;;;;;;;;;;;;;5093415;28;20423;-68
2023/05/04 14:48:40;;;;;;;;;;;;;;;;;;5110365;28;19924;-69
2023/05/04 14:51:07;;;;;;;;;;;;;;;;;;5104200;28;19985;-69
2023/05/04 14:53:34;;;;;;;;;;;;;;;;;;5110650;28;19959;-69
2023/05/04 14:56:01;;;;;;;;;;;;;;;;;;5108876;28;19930;-69
2023/05/04 14:58:28;;;;;;;;;;;;;;;;;;5111857;28;19955;-69
2023/05/04 15:00:55;;;;;;;;;;;;;;;;;;5108329;28;19946;-69
2023/05/04 15:03:24;;;;;;;;;;;;;;;;;;5112306;28;19927;-69
2023/05/04 15:05:51;;;;;;;;;;;;;;;;;;5110299;28;19928;-69
2023/05/04 15:08:18;;;;;;;;;;;;;;;;;;5107505;28;19985;-69
2023/05/04 15:10:45;;;;;;;;;;;;;;;;;;5099994;28;20329;-69
2023/05/04 15:13:14;;;;;;;;;;;;;;;;;;5100993;28;19970;-69
2023/05/04 15:15:41;;;;;;;;;;;;;;;;;;5111645;27;19958;-69
2023/05/04 15:18:08;;;;;;;;;;;;;;;;;;5114259;27;19963;-69
2023/05/04 15:20:35;;;;;;;;;;;;;;;;;;5108450;28;19927;-69
2023/05/04 15:23:09;;;;;;;;;;;;;;;;;;5101711;28;20098;-68
2023/05/04 15:25:36;;;;;;;;;;;;;;;;;;5109487;28;19930;-69
2023/05/04 15:28:07;;;;;;;;;;;;;;;;;;5100918;28;20010;-69
2023/05/04 15:30:34;;;;;;;;;;;;;;;;;;5107787;28;19924;-69
2023/05/04 15:33:03;;;;;;;;;;;;;;;;;;5106247;28;19940;-69
2023/05/04 15:35:30;;;;;;;;;;;;;;;;;;5098783;28;19967;-71
2023/05/04 15:37:57;;;;;;;;;;;;;;;;;;5102692;28;20022;-69
2023/05/04 15:40:24;;;;;;;;;;;;;;;;;;5101606;28;20470;-70
2023/05/04 15:42:51;;;;;;;;;;;;;;;;;;5108667;27;19967;-70
2023/05/04 15:45:18;;;;;;;;;;;;;;;;;;5108819;28;19995;-69
2023/05/04 15:47:45;;;;;;;;;;;;;;;;;;5111652;28;19924;-70
2023/05/04 15:50:12;;;;;;;;;;;;;;;;;;5109822;28;19924;-69
2023/05/04 15:52:39;;;;;;;;;;;;;;;;;;5109648;28;20371;-69
2023/05/04 15:55:06;;;;;;;;;;;;;;;;;;5108971;28;19923;-70
2023/05/04 15:57:33;;;;;;;;;;;;;;;;;;5105428;28;19930;-70
2023/05/04 16:00:01;;;;;;;;;;;;;;;;;;5102078;28;19955;-70
2023/05/04 16:02:28;;;;;;;;;;;;;;;;;;5108354;28;19981;-69
2023/05/04 16:04:55;;;;;;;;;;;;;;;;;;5108943;28;19923;-70
2023/05/04 16:07:22;;;;;;;;;;;;;;;;;;5110153;28;19993;-69
2023/05/04 16:09:49;;;;;;;;;;;;;;;;;;5110750;28;19927;-69
2023/05/04 16:12:19;;;;;;;;;;;;;;;;;;5108714;28;19928;-69
2023/05/04 16:14:46;;;;;;;;;;;;;;;;;;5106024;28;19970;-68
2023/05/04 16:17:13;;;;;;;;;;;;;;;;;;5105644;28;20006;-69
2023/05/04 16:19:40;;;;;;;;;;;;;;;;;;5107579;28;20293;-69
2023/05/04 16:22:07;;;;;;;;;;;;;;;;;;5107908;28;20603;-71
2023/05/04 16:24:34;;;;;;;;;;;;;;;;;;5101738;28;19939;-68
2023/05/04 16:27:02;;;;;;;;;;;;;;;;;;5091696;28;19927;-69
2023/05/04 16:29:29;;;;;;;;;;;;;;;;;;5104433;28;19924;-69
2023/05/04 16:31:56;;;;;;;;;;;;;;;;;;5105969;28;20314;-69
2023/05/04 16:34:23;;;;;;;;;;;;;;;;;;5104143;28;19978;-69
2023/05/04 16:36:50;;;;;;;;;;;;;;;;;;5090992;28;19950;-69
2023/05/04 16:39:17;;;;;;;;;;;;;;;;;;5106999;28;19971;-70
2023/05/04 16:41:45;;;;;;;;;;;;;;;;;;5102886;28;19924;-70
2023/05/04 16:44:12;;;;;;;;;;;;;;;;;;5107598;28;19958;-70